sensor_id;sensor_type;location;lat;lon;timestamp;temperature;humidity
34877;DHT22;21086;44.780;17.194;2023-12-22T00:00:55;12.90;99.90
34877;DHT22;21086;44.780;17.194;2023-12-22T00:03:22;12.90;99.90
34877;DHT22;21086;44.780;17.194;2023-12-22T00:05:49;12.90;99.90
34877;DHT22;21086;44.780;17.194;2023-12-22T00:08:16;12.90;99.90
34877;DHT22;21086;44.780;17.194;2023-12-22T00:10:43;12.90;99.90
34877;DHT22;21086;44.780;17.194;2023-12-22T00:13:12;13.00;99.90
34877;DHT22;21086;44.780;17.194;2023-12-22T00:15:39;13.00;99.90
34877;DHT22;21086;44.780;17.194;2023-12-22T00:18:06;13.20;99.90
34877;DHT22;21086;44.780;17.194;2023-12-22T00:20:34;13.20;99.90
34877;DHT22;21086;44.780;17.194;2023-12-22T00:23:01;13.30;99.90
34877;DHT22;21086;44.780;17.194;2023-12-22T00:25:28;13.30;99.90
34877;DHT22;21086;44.780;17.194;2023-12-22T00:27:55;13.30;99.90
34877;DHT22;21086;44.780;17.194;2023-12-22T00:30:21;13.30;99.90
34877;DHT22;21086;44.780;17.194;2023-12-22T00:32:50;13.30;99.90
34877;DHT22;21086;44.780;17.194;2023-12-22T00:35:18;13.40;99.90
34877;DHT22;21086;44.780;17.194;2023-12-22T00:37:44;13.40;99.90
34877;DHT22;21086;44.780;17.194;2023-12-22T00:40:12;13.40;99.90
34877;DHT22;21086;44.780;17.194;2023-12-22T00:42:39;13.40;99.90
34877;DHT22;21086;44.780;17.194;2023-12-22T00:45:06;13.40;99.90
34877;DHT22;21086;44.780;17.194;2023-12-22T00:47:33;13.40;99.90
34877;DHT22;21086;44.780;17.194;2023-12-22T00:50:03;13.40;99.90
34877;DHT22;21086;44.780;17.194;2023-12-22T00:52:31;13.40;99.90
34877;DHT22;21086;44.780;17.194;2023-12-22T00:54:59;13.40;99.90
34877;DHT22;21086;44.780;17.194;2023-12-22T00:57:28;13.30;99.90
34877;DHT22;21086;44.780;17.194;2023-12-22T00:59:55;13.40;99.90
34877;DHT22;21086;44.780;17.194;2023-12-22T01:02:22;13.40;99.90
34877;DHT22;21086;44.780;17.194;2023-12-22T01:04:48;13.30;99.90
34877;DHT22;21086;44.780;17.194;2023-12-22T01:07:16;13.30;99.90
34877;DHT22;21086;44.780;17.194;2023-12-22T01:09:43;13.20;99.90
34877;DHT22;21086;44.780;17.194;2023-12-22T01:12:10;13.20;99.90
34877;DHT22;21086;44.780;17.194;2023-12-22T01:14:37;13.20;99.90
34877;DHT22;21086;44.780;17.194;2023-12-22T01:17:04;13.20;99.90
34877;DHT22;21086;44.780;17.194;2023-12-22T01:19:31;13.10;99.90
34877;DHT22;21086;44.780;17.194;2023-12-22T01:21:58;13.10;99.90
34877;DHT22;21086;44.780;17.194;2023-12-22T01:24:25;13.10;99.90
34877;DHT22;21086;44.780;17.194;2023-12-22T01:26:52;13.10;99.90
34877;DHT22;21086;44.780;17.194;2023-12-22T01:29:19;13.00;99.90
34877;DHT22;21086;44.780;17.194;2023-12-22T01:31:46;13.00;99.90
34877;DHT22;21086;44.780;17.194;2023-12-22T01:34:13;13.00;99.90
34877;DHT22;21086;44.780;17.194;2023-12-22T01:36:40;12.90;99.90
34877;DHT22;21086;44.780;17.194;2023-12-22T01:39:07;13.00;99.90
34877;DHT22;21086;44.780;17.194;2023-12-22T01:41:35;12.90;99.90
34877;DHT22;21086;44.780;17.194;2023-12-22T01:44:02;12.90;99.90
34877;DHT22;21086;44.780;17.194;2023-12-22T01:46:29;12.90;99.90
34877;DHT22;21086;44.780;17.194;2023-12-22T01:48:58;12.90;99.90
34877;DHT22;21086;44.780;17.194;2023-12-22T01:51:29;12.90;99.90
34877;DHT22;21086;44.780;17.194;2023-12-22T01:53:57;12.90;99.90
34877;DHT22;21086;44.780;17.194;2023-12-22T01:56:24;12.90;99.90
34877;DHT22;21086;44.780;17.194;2023-12-22T01:58:53;12.90;99.90
34877;DHT22;21086;44.780;17.194;2023-12-22T02:01:22;12.80;99.90
34877;DHT22;21086;44.780;17.194;2023-12-22T02:03:51;12.90;99.90
34877;DHT22;21086;44.780;17.194;2023-12-22T02:06:21;12.80;99.90
34877;DHT22;21086;44.780;17.194;2023-12-22T02:08:49;12.70;99.90
34877;DHT22;21086;44.780;17.194;2023-12-22T02:11:16;12.70;99.90
34877;DHT22;21086;44.780;17.194;2023-12-22T02:13:43;12.70;99.90
34877;DHT22;21086;44.780;17.194;2023-12-22T02:16:18;12.50;99.90
34877;DHT22;21086;44.780;17.194;2023-12-22T02:18:50;12.40;99.90
34877;DHT22;21086;44.780;17.194;2023-12-22T02:21:19;12.20;99.90
34877;DHT22;21086;44.780;17.194;2023-12-22T02:23:49;12.00;99.90
34877;DHT22;21086;44.780;17.194;2023-12-22T02:26:28;11.90;99.90
34877;DHT22;21086;44.780;17.194;2023-12-22T02:29:00;11.80;99.90
34877;DHT22;21086;44.780;17.194;2023-12-22T02:31:37;11.60;99.90
34877;DHT22;21086;44.780;17.194;2023-12-22T02:34:12;11.40;99.90
34877;DHT22;21086;44.780;17.194;2023-12-22T02:36:41;11.30;99.90
34877;DHT22;21086;44.780;17.194;2023-12-22T02:39:10;11.20;99.90
34877;DHT22;21086;44.780;17.194;2023-12-22T02:41:38;11.10;99.90
34877;DHT22;21086;44.780;17.194;2023-12-22T02:44:05;11.10;99.90
34877;DHT22;21086;44.780;17.194;2023-12-22T02:46:34;11.10;99.90
34877;DHT22;21086;44.780;17.194;2023-12-22T02:49:01;11.00;99.90
34877;DHT22;21086;44.780;17.194;2023-12-22T02:51:28;11.00;99.90
34877;DHT22;21086;44.780;17.194;2023-12-22T02:53:55;11.00;99.90
34877;DHT22;21086;44.780;17.194;2023-12-22T02:56:22;11.10;99.90
34877;DHT22;21086;44.780;17.194;2023-12-22T02:58:49;11.20;99.90
34877;DHT22;21086;44.780;17.194;2023-12-22T03:01:16;11.20;99.90
34877;DHT22;21086;44.780;17.194;2023-12-22T03:03:43;11.10;99.90
34877;DHT22;21086;44.780;17.194;2023-12-22T03:06:10;11.10;99.90
34877;DHT22;21086;44.780;17.194;2023-12-22T03:08:37;11.10;99.90
34877;DHT22;21086;44.780;17.194;2023-12-22T03:11:04;11.20;99.90
34877;DHT22;21086;44.780;17.194;2023-12-22T03:13:31;11.30;99.90
34877;DHT22;21086;44.780;17.194;2023-12-22T03:15:58;11.40;99.90
34877;DHT22;21086;44.780;17.194;2023-12-22T03:18:25;11.40;99.90
34877;DHT22;21086;44.780;17.194;2023-12-22T03:20:52;11.30;99.90
34877;DHT22;21086;44.780;17.194;2023-12-22T03:23:19;11.30;99.90
34877;DHT22;21086;44.780;17.194;2023-12-22T03:25:46;11.30;99.90
34877;DHT22;21086;44.780;17.194;2023-12-22T03:28:13;11.30;99.90
34877;DHT22;21086;44.780;17.194;2023-12-22T03:30:40;11.30;99.90
34877;DHT22;21086;44.780;17.194;2023-12-22T03:33:07;11.20;99.90
34877;DHT22;21086;44.780;17.194;2023-12-22T03:35:34;11.10;99.90
34877;DHT22;21086;44.780;17.194;2023-12-22T03:38:03;11.10;99.90
34877;DHT22;21086;44.780;17.194;2023-12-22T03:40:30;11.20;99.90
34877;DHT22;21086;44.780;17.194;2023-12-22T03:42:57;11.10;99.90
34877;DHT22;21086;44.780;17.194;2023-12-22T03:45:24;11.20;99.90
34877;DHT22;21086;44.780;17.194;2023-12-22T03:47:51;11.20;99.90
34877;DHT22;21086;44.780;17.194;2023-12-22T03:50:18;11.20;99.90
34877;DHT22;21086;44.780;17.194;2023-12-22T03:52:45;11.20;99.90
34877;DHT22;21086;44.780;17.194;2023-12-22T03:55:12;11.20;99.90
34877;DHT22;21086;44.780;17.194;2023-12-22T03:57:39;11.30;99.90
34877;DHT22;21086;44.780;17.194;2023-12-22T04:00:06;11.30;99.90
34877;DHT22;21086;44.780;17.194;2023-12-22T04:02:34;11.20;99.90
34877;DHT22;21086;44.780;17.194;2023-12-22T04:05:01;11.10;99.90
34877;DHT22;21086;44.780;17.194;2023-12-22T04:07:28;11.10;99.90
34877;DHT22;21086;44.780;17.194;2023-12-22T04:09:55;10.90;99.90
34877;DHT22;21086;44.780;17.194;2023-12-22T04:12:22;10.80;99.90
34877;DHT22;21086;44.780;17.194;2023-12-22T04:14:49;10.80;99.90
34877;DHT22;21086;44.780;17.194;2023-12-22T04:17:16;10.90;99.90
34877;DHT22;21086;44.780;17.194;2023-12-22T04:19:43;10.80;99.90
34877;DHT22;21086;44.780;17.194;2023-12-22T04:22:10;10.90;99.90
34877;DHT22;21086;44.780;17.194;2023-12-22T04:24:37;10.80;99.90
34877;DHT22;21086;44.780;17.194;2023-12-22T04:27:04;10.90;99.90
34877;DHT22;21086;44.780;17.194;2023-12-22T04:29:31;10.80;99.90
34877;DHT22;21086;44.780;17.194;2023-12-22T04:31:58;10.80;99.90
34877;DHT22;21086;44.780;17.194;2023-12-22T04:34:25;10.70;99.90
34877;DHT22;21086;44.780;17.194;2023-12-22T04:36:52;10.70;99.90
34877;DHT22;21086;44.780;17.194;2023-12-22T04:39:19;10.70;99.90
34877;DHT22;21086;44.780;17.194;2023-12-22T04:41:46;10.70;99.90
34877;DHT22;21086;44.780;17.194;2023-12-22T04:44:13;10.70;99.90
34877;DHT22;21086;44.780;17.194;2023-12-22T04:46:40;10.70;99.90
34877;DHT22;21086;44.780;17.194;2023-12-22T04:49:07;10.70;99.90
34877;DHT22;21086;44.780;17.194;2023-12-22T04:51:34;10.70;99.90
34877;DHT22;21086;44.780;17.194;2023-12-22T04:54:01;10.70;99.90
34877;DHT22;21086;44.780;17.194;2023-12-22T04:56:28;10.70;99.90
34877;DHT22;21086;44.780;17.194;2023-12-22T04:58:55;10.70;99.90
34877;DHT22;21086;44.780;17.194;2023-12-22T05:01:22;10.70;99.90
34877;DHT22;21086;44.780;17.194;2023-12-22T05:03:49;10.70;99.90
34877;DHT22;21086;44.780;17.194;2023-12-22T05:06:16;10.70;99.90
34877;DHT22;21086;44.780;17.194;2023-12-22T05:08:43;10.70;99.90
34877;DHT22;21086;44.780;17.194;2023-12-22T05:11:10;10.70;99.90
34877;DHT22;21086;44.780;17.194;2023-12-22T05:13:37;10.70;99.90
34877;DHT22;21086;44.780;17.194;2023-12-22T05:16:04;10.70;99.90
34877;DHT22;21086;44.780;17.194;2023-12-22T05:18:34;10.70;99.90
34877;DHT22;21086;44.780;17.194;2023-12-22T05:21:01;10.70;99.90
34877;DHT22;21086;44.780;17.194;2023-12-22T05:23:28;10.70;99.90
34877;DHT22;21086;44.780;17.194;2023-12-22T05:25:54;10.80;99.90
34877;DHT22;21086;44.780;17.194;2023-12-22T05:28:22;10.60;99.90
34877;DHT22;21086;44.780;17.194;2023-12-22T05:30:49;10.50;99.90
34877;DHT22;21086;44.780;17.194;2023-12-22T05:33:16;10.30;99.90
34877;DHT22;21086;44.780;17.194;2023-12-22T05:35:43;10.10;99.90
34877;DHT22;21086;44.780;17.194;2023-12-22T05:38:10;10.10;99.90
34877;DHT22;21086;44.780;17.194;2023-12-22T05:40:37;10.00;99.90
34877;DHT22;21086;44.780;17.194;2023-12-22T05:43:04;10.10;99.90
34877;DHT22;21086;44.780;17.194;2023-12-22T05:45:31;10.10;99.90
34877;DHT22;21086;44.780;17.194;2023-12-22T05:47:58;10.00;99.90
34877;DHT22;21086;44.780;17.194;2023-12-22T05:50:25;10.10;99.90
34877;DHT22;21086;44.780;17.194;2023-12-22T05:52:53;10.20;99.90
34877;DHT22;21086;44.780;17.194;2023-12-22T05:55:20;10.20;99.90
34877;DHT22;21086;44.780;17.194;2023-12-22T05:57:47;10.20;99.90
34877;DHT22;21086;44.780;17.194;2023-12-22T06:00:15;10.20;99.90
34877;DHT22;21086;44.780;17.194;2023-12-22T06:02:42;10.30;99.90
34877;DHT22;21086;44.780;17.194;2023-12-22T06:05:09;10.30;99.90
34877;DHT22;21086;44.780;17.194;2023-12-22T06:07:36;10.30;99.90
34877;DHT22;21086;44.780;17.194;2023-12-22T06:10:03;10.30;99.90
34877;DHT22;21086;44.780;17.194;2023-12-22T06:12:30;10.30;99.90
34877;DHT22;21086;44.780;17.194;2023-12-22T06:14:57;10.30;99.90
34877;DHT22;21086;44.780;17.194;2023-12-22T06:17:24;10.30;99.90
34877;DHT22;21086;44.780;17.194;2023-12-22T06:19:51;10.20;99.90
34877;DHT22;21086;44.780;17.194;2023-12-22T06:22:18;10.30;99.90
34877;DHT22;21086;44.780;17.194;2023-12-22T06:24:45;10.30;99.90
34877;DHT22;21086;44.780;17.194;2023-12-22T06:27:12;10.30;99.90
34877;DHT22;21086;44.780;17.194;2023-12-22T06:29:39;10.20;99.90
34877;DHT22;21086;44.780;17.194;2023-12-22T06:32:06;10.20;99.90
34877;DHT22;21086;44.780;17.194;2023-12-22T06:34:33;10.10;99.90
34877;DHT22;21086;44.780;17.194;2023-12-22T06:37:00;10.00;99.90
34877;DHT22;21086;44.780;17.194;2023-12-22T06:39:27;10.10;99.90
34877;DHT22;21086;44.780;17.194;2023-12-22T06:41:54;10.10;99.90
34877;DHT22;21086;44.780;17.194;2023-12-22T06:44:21;10.00;99.90
34877;DHT22;21086;44.780;17.194;2023-12-22T06:46:48;10.00;99.90
34877;DHT22;21086;44.780;17.194;2023-12-22T06:49:15;10.00;99.90
34877;DHT22;21086;44.780;17.194;2023-12-22T06:51:42;9.90;99.90
34877;DHT22;21086;44.780;17.194;2023-12-22T06:54:09;9.90;99.90
34877;DHT22;21086;44.780;17.194;2023-12-22T06:56:39;9.90;99.90
34877;DHT22;21086;44.780;17.194;2023-12-22T06:59:06;10.00;99.90
34877;DHT22;21086;44.780;17.194;2023-12-22T07:01:34;10.00;99.90
34877;DHT22;21086;44.780;17.194;2023-12-22T07:04:03;10.00;99.90
34877;DHT22;21086;44.780;17.194;2023-12-22T07:06:32;10.00;99.90
34877;DHT22;21086;44.780;17.194;2023-12-22T07:11:43;10.00;99.90
34877;DHT22;21086;44.780;17.194;2023-12-22T07:14:10;10.00;99.90
34877;DHT22;21086;44.780;17.194;2023-12-22T07:16:38;10.00;99.90
34877;DHT22;21086;44.780;17.194;2023-12-22T07:19:06;10.00;99.90
34877;DHT22;21086;44.780;17.194;2023-12-22T07:21:33;9.90;99.90
34877;DHT22;21086;44.780;17.194;2023-12-22T07:24:00;9.90;99.90
34877;DHT22;21086;44.780;17.194;2023-12-22T07:26:27;9.90;99.90
34877;DHT22;21086;44.780;17.194;2023-12-22T07:28:54;9.90;99.90
34877;DHT22;21086;44.780;17.194;2023-12-22T07:31:22;9.90;99.90
34877;DHT22;21086;44.780;17.194;2023-12-22T07:33:48;9.80;99.90
34877;DHT22;21086;44.780;17.194;2023-12-22T07:36:16;9.80;99.90
34877;DHT22;21086;44.780;17.194;2023-12-22T07:38:42;9.80;99.90
34877;DHT22;21086;44.780;17.194;2023-12-22T07:41:10;9.90;99.90
34877;DHT22;21086;44.780;17.194;2023-12-22T07:43:38;9.90;99.90
34877;DHT22;21086;44.780;17.194;2023-12-22T07:46:05;9.80;99.90
34877;DHT22;21086;44.780;17.194;2023-12-22T07:48:32;9.90;99.90
34877;DHT22;21086;44.780;17.194;2023-12-22T07:50:59;10.00;99.90
34877;DHT22;21086;44.780;17.194;2023-12-22T07:53:26;10.00;99.90
34877;DHT22;21086;44.780;17.194;2023-12-22T07:55:53;9.80;99.90
34877;DHT22;21086;44.780;17.194;2023-12-22T07:58:21;9.80;99.90
34877;DHT22;21086;44.780;17.194;2023-12-22T08:00:48;9.80;99.90
34877;DHT22;21086;44.780;17.194;2023-12-22T08:03:15;9.80;99.90
34877;DHT22;21086;44.780;17.194;2023-12-22T08:05:42;9.90;99.90
34877;DHT22;21086;44.780;17.194;2023-12-22T08:08:09;9.90;99.90
34877;DHT22;21086;44.780;17.194;2023-12-22T08:10:36;9.70;99.90
34877;DHT22;21086;44.780;17.194;2023-12-22T08:13:03;9.80;99.90
34877;DHT22;21086;44.780;17.194;2023-12-22T08:15:30;9.80;99.90
34877;DHT22;21086;44.780;17.194;2023-12-22T08:18:03;9.90;99.90
34877;DHT22;21086;44.780;17.194;2023-12-22T08:20:30;9.80;99.90
34877;DHT22;21086;44.780;17.194;2023-12-22T08:23:03;9.80;99.90
34877;DHT22;21086;44.780;17.194;2023-12-22T08:25:36;9.80;99.90
34877;DHT22;21086;44.780;17.194;2023-12-22T08:28:04;9.80;99.90
34877;DHT22;21086;44.780;17.194;2023-12-22T08:30:31;9.80;99.90
34877;DHT22;21086;44.780;17.194;2023-12-22T08:32:58;9.80;99.90
34877;DHT22;21086;44.780;17.194;2023-12-22T08:35:25;9.80;99.90
34877;DHT22;21086;44.780;17.194;2023-12-22T08:37:52;9.70;99.90
34877;DHT22;21086;44.780;17.194;2023-12-22T08:40:19;9.90;99.90
34877;DHT22;21086;44.780;17.194;2023-12-22T08:42:54;10.00;99.90
34877;DHT22;21086;44.780;17.194;2023-12-22T08:45:21;10.00;99.90
34877;DHT22;21086;44.780;17.194;2023-12-22T08:47:48;10.10;99.90
34877;DHT22;21086;44.780;17.194;2023-12-22T08:50:15;10.20;99.90
34877;DHT22;21086;44.780;17.194;2023-12-22T08:52:43;10.20;99.90
34877;DHT22;21086;44.780;17.194;2023-12-22T08:55:10;10.20;99.90
34877;DHT22;21086;44.780;17.194;2023-12-22T08:57:38;10.20;99.90
34877;DHT22;21086;44.780;17.194;2023-12-22T09:00:15;10.10;99.90
34877;DHT22;21086;44.780;17.194;2023-12-22T09:02:42;10.10;99.90
34877;DHT22;21086;44.780;17.194;2023-12-22T09:05:09;10.10;99.90
34877;DHT22;21086;44.780;17.194;2023-12-22T09:07:36;10.20;99.90
34877;DHT22;21086;44.780;17.194;2023-12-22T09:10:04;10.30;99.90
34877;DHT22;21086;44.780;17.194;2023-12-22T09:12:33;10.30;99.90
34877;DHT22;21086;44.780;17.194;2023-12-22T09:15:00;10.30;99.90
34877;DHT22;21086;44.780;17.194;2023-12-22T09:17:27;10.40;99.90
34877;DHT22;21086;44.780;17.194;2023-12-22T09:19:55;10.40;99.90
34877;DHT22;21086;44.780;17.194;2023-12-22T09:22:22;10.40;99.90
34877;DHT22;21086;44.780;17.194;2023-12-22T09:24:49;10.40;99.90
34877;DHT22;21086;44.780;17.194;2023-12-22T09:27:16;10.50;99.90
34877;DHT22;21086;44.780;17.194;2023-12-22T09:29:43;10.40;99.90
34877;DHT22;21086;44.780;17.194;2023-12-22T09:32:10;10.40;99.90
34877;DHT22;21086;44.780;17.194;2023-12-22T09:34:37;10.30;99.90
34877;DHT22;21086;44.780;17.194;2023-12-22T09:37:06;10.30;99.90
34877;DHT22;21086;44.780;17.194;2023-12-22T09:39:33;10.30;99.90
34877;DHT22;21086;44.780;17.194;2023-12-22T09:42:00;10.30;99.90
34877;DHT22;21086;44.780;17.194;2023-12-22T09:44:31;10.20;99.90
34877;DHT22;21086;44.780;17.194;2023-12-22T09:47:00;10.00;99.90
34877;DHT22;21086;44.780;17.194;2023-12-22T09:49:30;9.90;99.90
34877;DHT22;21086;44.780;17.194;2023-12-22T09:51:58;9.80;99.90
34877;DHT22;21086;44.780;17.194;2023-12-22T09:54:26;9.50;99.90
34877;DHT22;21086;44.780;17.194;2023-12-22T09:56:53;9.40;99.90
34877;DHT22;21086;44.780;17.194;2023-12-22T09:59:21;12.90;99.90
34877;DHT22;21086;44.780;17.194;2023-12-22T10:01:49;9.20;99.90
34877;DHT22;21086;44.780;17.194;2023-12-22T10:04:17;9.10;99.90
34877;DHT22;21086;44.780;17.194;2023-12-22T10:06:47;9.10;99.90
34877;DHT22;21086;44.780;17.194;2023-12-22T10:09:18;8.80;99.90
34877;DHT22;21086;44.780;17.194;2023-12-22T10:11:49;8.90;99.90
34877;DHT22;21086;44.780;17.194;2023-12-22T10:14:19;8.90;99.90
34877;DHT22;21086;44.780;17.194;2023-12-22T10:16:52;9.00;99.90
34877;DHT22;21086;44.780;17.194;2023-12-22T10:19:20;9.00;99.90
34877;DHT22;21086;44.780;17.194;2023-12-22T10:21:48;9.20;99.90
34877;DHT22;21086;44.780;17.194;2023-12-22T10:24:45;9.40;99.90
34877;DHT22;21086;44.780;17.194;2023-12-22T10:27:18;9.80;99.90
34877;DHT22;21086;44.780;17.194;2023-12-22T10:29:50;10.00;99.90
34877;DHT22;21086;44.780;17.194;2023-12-22T10:32:17;10.30;99.90
34877;DHT22;21086;44.780;17.194;2023-12-22T10:34:44;10.60;99.90
34877;DHT22;21086;44.780;17.194;2023-12-22T10:37:11;11.10;99.90
34877;DHT22;21086;44.780;17.194;2023-12-22T10:39:40;11.60;99.90
34877;DHT22;21086;44.780;17.194;2023-12-22T10:42:08;11.90;99.90
34877;DHT22;21086;44.780;17.194;2023-12-22T10:44:40;11.90;99.90
34877;DHT22;21086;44.780;17.194;2023-12-22T10:47:08;11.90;99.90
34877;DHT22;21086;44.780;17.194;2023-12-22T10:49:36;11.90;99.90
34877;DHT22;21086;44.780;17.194;2023-12-22T10:52:03;11.80;99.90
34877;DHT22;21086;44.780;17.194;2023-12-22T10:54:31;11.80;99.90
34877;DHT22;21086;44.780;17.194;2023-12-22T10:56:58;11.70;99.90
34877;DHT22;21086;44.780;17.194;2023-12-22T10:59:29;11.60;99.90
34877;DHT22;21086;44.780;17.194;2023-12-22T11:01:58;11.50;99.90
34877;DHT22;21086;44.780;17.194;2023-12-22T11:04:29;9.10;99.90
34877;DHT22;21086;44.780;17.194;2023-12-22T11:07:03;11.30;99.90
34877;DHT22;21086;44.780;17.194;2023-12-22T11:09:35;10.90;99.90
34877;DHT22;21086;44.780;17.194;2023-12-22T11:12:03;10.70;99.90
34877;DHT22;21086;44.780;17.194;2023-12-22T11:14:31;10.60;99.90
34877;DHT22;21086;44.780;17.194;2023-12-22T11:17:00;10.80;99.90
34877;DHT22;21086;44.780;17.194;2023-12-22T11:19:31;11.10;99.90
34877;DHT22;21086;44.780;17.194;2023-12-22T11:22:01;11.10;99.90
34877;DHT22;21086;44.780;17.194;2023-12-22T11:24:29;11.00;99.90
34877;DHT22;21086;44.780;17.194;2023-12-22T11:26:58;10.90;99.90
34877;DHT22;21086;44.780;17.194;2023-12-22T11:29:26;10.80;99.90
34877;DHT22;21086;44.780;17.194;2023-12-22T11:31:55;10.80;99.90
34877;DHT22;21086;44.780;17.194;2023-12-22T11:34:26;10.70;99.90
34877;DHT22;21086;44.780;17.194;2023-12-22T11:36:57;10.90;99.90
34877;DHT22;21086;44.780;17.194;2023-12-22T11:39:25;11.10;99.90
34877;DHT22;21086;44.780;17.194;2023-12-22T11:41:53;11.30;99.90
34877;DHT22;21086;44.780;17.194;2023-12-22T11:44:22;11.60;99.90
34877;DHT22;21086;44.780;17.194;2023-12-22T11:46:49;12.20;99.90
34877;DHT22;21086;44.780;17.194;2023-12-22T11:49:16;12.70;99.90
34877;DHT22;21086;44.780;17.194;2023-12-22T11:51:43;13.00;99.90
34877;DHT22;21086;44.780;17.194;2023-12-22T11:54:46;12.70;99.90
34877;DHT22;21086;44.780;17.194;2023-12-22T11:57:41;12.30;99.90
34877;DHT22;21086;44.780;17.194;2023-12-22T12:03:07;12.10;99.90
34877;DHT22;21086;44.780;17.194;2023-12-22T12:05:34;12.10;99.90
34877;DHT22;21086;44.780;17.194;2023-12-22T12:08:07;12.10;99.90
34877;DHT22;21086;44.780;17.194;2023-12-22T12:13:08;13.20;99.90
34877;DHT22;21086;44.780;17.194;2023-12-22T12:15:37;15.60;99.90
34877;DHT22;21086;44.780;17.194;2023-12-22T12:18:05;18.00;99.90
34877;DHT22;21086;44.780;17.194;2023-12-22T12:20:33;20.40;99.90
34877;DHT22;21086;44.780;17.194;2023-12-22T12:23:03;22.30;99.90
34877;DHT22;21086;44.780;17.194;2023-12-22T12:25:35;22.60;99.90
34877;DHT22;21086;44.780;17.194;2023-12-22T12:28:07;22.20;99.90
34877;DHT22;21086;44.780;17.194;2023-12-22T12:30:37;21.70;99.90
34877;DHT22;21086;44.780;17.194;2023-12-22T12:33:12;20.90;99.90
34877;DHT22;21086;44.780;17.194;2023-12-22T12:35:41;21.00;99.90
34877;DHT22;21086;44.780;17.194;2023-12-22T12:38:17;21.90;99.90
34877;DHT22;21086;44.780;17.194;2023-12-22T12:40:50;23.00;99.90
34877;DHT22;21086;44.780;17.194;2023-12-22T12:43:17;24.30;99.90
34877;DHT22;21086;44.780;17.194;2023-12-22T12:45:45;24.60;99.90
34877;DHT22;21086;44.780;17.194;2023-12-22T12:48:16;25.40;99.90
34877;DHT22;21086;44.780;17.194;2023-12-22T12:50:44;26.10;99.90
34877;DHT22;21086;44.780;17.194;2023-12-22T12:53:11;26.90;99.90
34877;DHT22;21086;44.780;17.194;2023-12-22T12:55:38;27.90;99.90
34877;DHT22;21086;44.780;17.194;2023-12-22T12:58:05;26.70;99.90
34877;DHT22;21086;44.780;17.194;2023-12-22T13:00:33;25.50;99.90
34877;DHT22;21086;44.780;17.194;2023-12-22T13:03:05;24.10;99.90
34877;DHT22;21086;44.780;17.194;2023-12-22T13:05:34;22.60;99.90
34877;DHT22;21086;44.780;17.194;2023-12-22T13:08:12;21.30;99.90
34877;DHT22;21086;44.780;17.194;2023-12-22T13:10:40;20.10;99.90
34877;DHT22;21086;44.780;17.194;2023-12-22T13:13:08;19.30;99.90
34877;DHT22;21086;44.780;17.194;2023-12-22T13:15:36;18.60;99.90
34877;DHT22;21086;44.780;17.194;2023-12-22T13:18:06;18.00;99.90
34877;DHT22;21086;44.780;17.194;2023-12-22T13:20:33;17.40;99.90
34877;DHT22;21086;44.780;17.194;2023-12-22T13:23:01;16.70;99.90
34877;DHT22;21086;44.780;17.194;2023-12-22T13:25:40;16.10;99.90
34877;DHT22;21086;44.780;17.194;2023-12-22T13:28:07;15.60;99.90
34877;DHT22;21086;44.780;17.194;2023-12-22T13:30:38;15.20;99.90
34877;DHT22;21086;44.780;17.194;2023-12-22T13:33:09;14.80;99.90
34877;DHT22;21086;44.780;17.194;2023-12-22T13:35:37;14.40;99.90
34877;DHT22;21086;44.780;17.194;2023-12-22T13:38:09;14.00;99.90
34877;DHT22;21086;44.780;17.194;2023-12-22T13:40:38;13.50;99.90
34877;DHT22;21086;44.780;17.194;2023-12-22T13:43:06;13.00;99.90
34877;DHT22;21086;44.780;17.194;2023-12-22T13:45:35;12.50;99.90
34877;DHT22;21086;44.780;17.194;2023-12-22T13:48:03;12.30;99.90
34877;DHT22;21086;44.780;17.194;2023-12-22T13:50:30;12.00;99.90
34877;DHT22;21086;44.780;17.194;2023-12-22T13:53:10;11.90;99.90
34877;DHT22;21086;44.780;17.194;2023-12-22T13:55:37;11.70;99.90
34877;DHT22;21086;44.780;17.194;2023-12-22T13:58:06;11.60;99.90
34877;DHT22;21086;44.780;17.194;2023-12-22T14:00:33;11.70;99.90
34877;DHT22;21086;44.780;17.194;2023-12-22T14:03:01;11.60;99.90
34877;DHT22;21086;44.780;17.194;2023-12-22T14:05:28;11.50;99.90
34877;DHT22;21086;44.780;17.194;2023-12-22T14:08:01;11.40;99.90
34877;DHT22;21086;44.780;17.194;2023-12-22T14:10:28;11.40;99.90
34877;DHT22;21086;44.780;17.194;2023-12-22T14:12:55;11.40;99.90
34877;DHT22;21086;44.780;17.194;2023-12-22T14:15:22;11.40;99.90
34877;DHT22;21086;44.780;17.194;2023-12-22T14:17:58;11.20;99.90
34877;DHT22;21086;44.780;17.194;2023-12-22T14:20:25;10.90;99.90
34877;DHT22;21086;44.780;17.194;2023-12-22T14:22:52;10.70;99.90
34877;DHT22;21086;44.780;17.194;2023-12-22T14:25:19;10.50;99.90
34877;DHT22;21086;44.780;17.194;2023-12-22T14:27:46;10.50;99.90
34877;DHT22;21086;44.780;17.194;2023-12-22T14:30:14;10.40;99.90
34877;DHT22;21086;44.780;17.194;2023-12-22T14:32:40;10.40;99.90
34877;DHT22;21086;44.780;17.194;2023-12-22T14:35:08;10.50;99.90
34877;DHT22;21086;44.780;17.194;2023-12-22T14:37:35;10.60;99.90
34877;DHT22;21086;44.780;17.194;2023-12-22T14:40:02;10.60;99.90
34877;DHT22;21086;44.780;17.194;2023-12-22T14:42:29;10.60;99.90
34877;DHT22;21086;44.780;17.194;2023-12-22T14:44:56;10.40;99.90
34877;DHT22;21086;44.780;17.194;2023-12-22T14:47:23;10.30;99.90
34877;DHT22;21086;44.780;17.194;2023-12-22T14:49:50;10.30;99.90
34877;DHT22;21086;44.780;17.194;2023-12-22T14:52:17;10.20;99.90
34877;DHT22;21086;44.780;17.194;2023-12-22T14:54:44;10.20;99.90
34877;DHT22;21086;44.780;17.194;2023-12-22T14:57:12;9.90;99.90
34877;DHT22;21086;44.780;17.194;2023-12-22T14:59:44;9.70;99.90
34877;DHT22;21086;44.780;17.194;2023-12-22T15:02:11;9.60;99.90
34877;DHT22;21086;44.780;17.194;2023-12-22T15:04:38;9.60;99.90
34877;DHT22;21086;44.780;17.194;2023-12-22T15:07:05;9.40;99.90
34877;DHT22;21086;44.780;17.194;2023-12-22T15:09:32;9.10;99.90
34877;DHT22;21086;44.780;17.194;2023-12-22T15:11:59;9.00;99.90
34877;DHT22;21086;44.780;17.194;2023-12-22T15:14:26;9.00;99.90
34877;DHT22;21086;44.780;17.194;2023-12-22T15:16:53;9.10;99.90
34877;DHT22;21086;44.780;17.194;2023-12-22T15:19:20;9.00;99.90
34877;DHT22;21086;44.780;17.194;2023-12-22T15:21:48;9.00;99.90
34877;DHT22;21086;44.780;17.194;2023-12-22T15:24:15;8.90;99.90
34877;DHT22;21086;44.780;17.194;2023-12-22T15:26:42;8.90;99.90
34877;DHT22;21086;44.780;17.194;2023-12-22T15:29:09;8.80;99.90
34877;DHT22;21086;44.780;17.194;2023-12-22T15:31:36;8.70;99.90